Aeroporto :
LOGIN :

Iscrizione | Disclaimer

   EN    FR    IT 

 










Sommario :    VFR   VFR Marginale   IFR   IFR Intensivo   IFR Molto Intensivo
Visibilità : 
Base nubi : 
>= 8 km
>= 3000ft
5 / 8 km
1000 / 3000 ft
1500m / 5 km
500 / 1000 ft
800 / 1500m
200 / 500 ft
< 800m
< 200 ft
Simboli :   Temporali  Nebbia  Neve Forte  Precipitazioni Forti  Vento > 20 kt
SIGMETs :   Varie  Temporali  Ghiacco  Turbolenza  Onda orograficha  Ceneri Vulcaniche







- Altitudine del aeroporto : 265 ft
- Carte del aeroporto


LFMC - Le Luc

ULTIMO METAR :
  • 201130Z AUTO 11008KT 040V150 9999 ////// 25/10 Q1014

METARs OBSOLETI :
  • 201100Z AUTO 13008KT 100V170 9999 ////// 25/11 Q1014
  • 201030Z AUTO 14008KT 110V170 9999 ////// 25/10 Q1014
  • 201000Z AUTO VRB06KT 9999 ////// 24/11 Q1014
  • 200930Z AUTO VRB02KT 9999 ////// 24/15 Q1015
  • 200900Z AUTO 00000KT 9999 ////// 23/13 Q1015

TAF N/A
Nessun NOTAM noto per questo aeroporto.



MetMap, La meteo Aeronautica in un colpo d'occhio ! - Copyright ORBIFLY Dicembre 2007 - Disclaimer

ORBIFLY MET'MAP TEAM :

Programmazione e sviluppo : Alexandra Zaïnal
Concezione e sviluppo : Baudouin d'Aumeries
Co-Programmazione e sviluppo : Marc-Olivier Méhu
Supporto tecnico e logistico : Manuel Goepfert
Aiuto per la traduzione : Arnaldo La Scala

Contatto : metmap@orbifly.com




FONTI E CREDITI :

   NOAA